Time;durP1;ratioP1;P1;durP2;ratioP2;P2;SDS_P1;SDS_P2;PMS_P1;PMS_P2;Temp;Humidity;BMP_temperature;BMP_pressure;BME280_temperature;BME280_humidity;BME280_pressure;Samples;Min_cycle;Max_cycle;Signal;HPM_P1;HPM_P2
2021/04/08 00:00:23;;;;;;;0.55;0.38;;;2.00;99.90;;;;;;5044204;28;20045;-73
2021/04/08 00:02:49;;;;;;;1.10;0.82;;;2.00;99.90;;;;;;5045410;28;20064;-73
2021/04/08 00:05:15;;;;;;;4.65;0.93;;;1.90;99.90;;;;;;5048361;28;20029;-71
2021/04/08 00:07:41;;;;;;;4.38;0.77;;;1.90;99.90;;;;;;5048425;28;20031;-72
2021/04/08 00:10:08;;;;;;;13.73;0.50;;;1.90;99.90;;;;;;5048369;28;20081;-71
2021/04/08 00:12:34;;;;;;;0.15;0.10;;;1.90;99.90;;;;;;5048375;28;20025;-72
2021/04/08 00:15:00;;;;;;;1.30;0.40;;;1.90;99.90;;;;;;5047097;28;20032;-71
2021/04/08 00:17:25;;;;;;;14.48;0.70;;;1.90;99.90;;;;;;5048171;28;20355;-71
2021/04/08 00:19:51;;;;;;;4.47;0.98;;;1.80;99.90;;;;;;5048098;28;20034;-71
2021/04/08 00:22:17;;;;;;;2.15;0.50;;;1.80;99.90;;;;;;5048217;28;20096;-72
2021/04/08 00:24:43;;;;;;;2.97;1.15;;;2.00;99.90;;;;;;5048202;28;20070;-73
2021/04/08 00:27:09;;;;;;;3.38;1.58;;;1.90;99.90;;;;;;5048159;28;20021;-71
2021/04/08 00:29:34;;;;;;;1.75;0.40;;;1.90;99.90;;;;;;5046837;28;20036;-72
2021/04/08 00:32:00;;;;;;;9.13;1.25;;;1.90;99.90;;;;;;5046850;28;20088;-70
2021/04/08 00:34:26;;;;;;;0.28;0.28;;;1.90;99.90;;;;;;5048063;28;20030;-72
2021/04/08 00:36:51;;;;;;;0.70;0.52;;;1.90;99.90;;;;;;5046508;28;20029;-71
2021/04/08 00:39:17;;;;;;;0.28;0.28;;;1.90;99.90;;;;;;5047748;28;20034;-72
2021/04/08 00:41:43;;;;;;;2.40;1.02;;;1.90;99.90;;;;;;5046549;28;20071;-72
2021/04/08 00:44:09;;;;;;;8.20;0.93;;;1.90;99.90;;;;;;5047708;28;20455;-71
2021/04/08 00:46:35;;;;;;;5.07;1.35;;;1.90;99.90;;;;;;5048242;28;20021;-72
2021/04/08 00:49:01;;;;;;;5.28;1.55;;;1.90;99.90;;;;;;5047963;28;20021;-71
2021/04/08 00:51:27;;;;;;;0.47;0.30;;;1.90;99.90;;;;;;5047816;28;20359;-71
2021/04/08 00:53:54;;;;;;;3.72;1.05;;;1.90;99.90;;;;;;5047772;28;20032;-71
2021/04/08 00:56:21;;;;;;;5.88;0.90;;;1.90;99.90;;;;;;5047514;28;20112;-71
2021/04/08 00:58:50;;;;;;;1.50;0.40;;;1.90;99.90;;;;;;5047297;28;20382;-72
2021/04/08 01:01:16;;;;;;;6.15;1.33;;;1.90;99.90;;;;;;5047575;28;20210;-73
2021/04/08 01:03:42;;;;;;;4.30;1.08;;;1.90;99.90;;;;;;5047143;28;20029;-73
2021/04/08 01:06:08;;;;;;;1.23;0.38;;;1.90;99.90;;;;;;5047529;28;20105;-74
2021/04/08 01:08:35;;;;;;;3.63;1.35;;;2.00;99.90;;;;;;5047225;28;20076;-73
2021/04/08 01:11:00;;;;;;;15.30;1.15;;;2.00;99.90;;;;;;5046159;28;20492;-72
2021/04/08 01:13:27;;;;;;;6.78;1.15;;;2.00;99.90;;;;;;5046805;28;20030;-71
2021/04/08 01:15:53;;;;;;;4.25;0.85;;;2.00;99.90;;;;;;5047128;28;20051;-72
2021/04/08 01:18:49;;;;;;;10.77;0.75;;;2.00;99.90;;;;;;5045603;28;20049;-73
2021/04/08 01:21:36;;;;;;;7.55;0.95;;;2.00;99.90;;;;;;5045756;28;20034;-74
2021/04/08 01:24:49;;;;;;;4.80;0.68;;;1.90;99.90;;;;;;5047342;28;20021;-72
2021/04/08 01:27:22;;;;;;;2.53;0.75;;;1.90;99.90;;;;;;5047030;28;20030;-72
2021/04/08 01:30:08;;;;;;;3.45;1.05;;;1.80;99.90;;;;;;5046793;28;20033;-73
2021/04/08 01:32:39;;;;;;;1.25;0.40;;;1.80;99.90;;;;;;5047101;28;20033;-72
2021/04/08 01:35:09;;;;;;;5.97;1.20;;;1.80;99.90;;;;;;5046907;28;20056;-74
2021/04/08 01:37:48;;;;;;;12.85;0.80;;;1.70;99.90;;;;;;5045711;28;20035;-73
2021/04/08 01:40:15;;;;;;;1.15;0.63;;;1.70;99.90;;;;;;5046725;28;20037;-73
2021/04/08 01:42:44;;;;;;;1.85;0.63;;;1.60;99.90;;;;;;5046812;28;20047;-73
2021/04/08 01:45:10;;;;;;;12.77;1.48;;;1.60;99.90;;;;;;5045364;28;20025;-73
2021/04/08 01:47:38;;;;;;;8.05;0.80;;;1.60;99.90;;;;;;5045454;28;20107;-74
2021/04/08 01:50:06;;;;;;;5.53;1.38;;;1.60;99.90;;;;;;5045392;28;20033;-71
2021/04/08 01:52:33;;;;;;;3.85;0.98;;;1.50;99.90;;;;;;5046700;28;20056;-73
2021/04/08 01:55:01;;;;;;;15.43;1.30;;;1.60;99.90;;;;;;5046609;28;20052;-73
2021/04/08 01:57:27;;;;;;;7.15;1.83;;;1.50;99.90;;;;;;5046331;28;20025;-74
2021/04/08 01:59:56;;;;;;;3.53;0.98;;;1.50;99.90;;;;;;5046412;28;20026;-72
2021/04/08 02:02:23;;;;;;;0.57;0.45;;;1.50;99.90;;;;;;5046517;28;20029;-73
2021/04/08 02:04:50;;;;;;;3.33;0.98;;;1.50;99.90;;;;;;5046166;28;20025;-73
2021/04/08 02:07:16;;;;;;;1.27;0.55;;;1.50;99.90;;;;;;5046241;28;20030;-71
2021/04/08 02:09:42;;;;;;;1.45;0.60;;;1.50;99.90;;;;;;5046161;28;20079;-72
2021/04/08 02:12:12;;;;;;;1.48;0.57;;;1.50;99.90;;;;;;5046350;28;20052;-72
2021/04/08 02:14:41;;;;;;;0.65;0.57;;;1.50;99.90;;;;;;5046269;28;20057;-73
2021/04/08 02:17:09;;;;;;;22.10;1.35;;;1.40;99.90;;;;;;5044742;28;20021;-72
2021/04/08 02:19:36;;;;;;;1.67;0.90;;;1.40;99.90;;;;;;5043586;28;20438;-73
2021/04/08 02:22:03;;;;;;;0.38;0.35;;;1.30;99.90;;;;;;5046179;28;20068;-72
2021/04/08 02:24:31;;;;;;;9.75;1.30;;;1.40;99.90;;;;;;5045646;28;20029;-72
2021/04/08 02:26:59;;;;;;;4.97;0.60;;;1.30;99.90;;;;;;5045366;28;20037;-72
2021/04/08 02:29:25;;;;;;;18.85;1.65;;;1.40;99.90;;;;;;5045605;28;20021;-72
2021/04/08 02:31:52;;;;;;;7.18;1.88;;;1.30;99.90;;;;;;5045703;28;20081;-72
2021/04/08 02:34:19;;;;;;;0.98;0.47;;;1.30;99.90;;;;;;5043628;28;20045;-73
2021/04/08 02:36:45;;;;;;;1.55;0.65;;;1.30;99.90;;;;;;5045177;28;20105;-72
2021/04/08 02:39:11;;;;;;;4.32;0.77;;;1.40;99.90;;;;;;5045574;28;20068;-73
2021/04/08 02:41:41;;;;;;;7.68;0.85;;;1.30;99.90;;;;;;5045160;28;20030;-73
2021/04/08 02:44:08;;;;;;;5.22;0.80;;;1.30;99.90;;;;;;5045406;28;20044;-74
2021/04/08 02:46:34;;;;;;;10.77;1.33;;;1.30;99.90;;;;;;5046016;28;20378;-72
2021/04/08 02:49:01;;;;;;;3.80;0.85;;;1.30;99.90;;;;;;5044155;28;20030;-72
2021/04/08 02:51:39;;;;;;;0.93;0.40;;;1.30;99.90;;;;;;5045340;28;20018;-73
2021/04/08 02:54:09;;;;;;;1.20;0.70;;;1.30;99.90;;;;;;5043515;28;20085;-75
2021/04/08 02:56:47;;;;;;;5.78;1.08;;;1.30;99.90;;;;;;5045063;28;20174;-75
2021/04/08 02:59:19;;;;;;;2.63;0.90;;;1.40;99.90;;;;;;5043793;28;20046;-73
2021/04/08 03:01:53;;;;;;;1.23;0.45;;;1.40;99.90;;;;;;5044207;28;20030;-73
2021/04/08 03:04:20;;;;;;;3.13;0.82;;;1.40;99.90;;;;;;5045072;28;20049;-73
2021/04/08 03:06:48;;;;;;;3.53;1.20;;;1.40;99.90;;;;;;5045265;28;20037;-72
2021/04/08 03:09:14;;;;;;;3.45;1.45;;;1.40;99.90;;;;;;5045086;28;20052;-73
2021/04/08 03:11:41;;;;;;;4.40;0.88;;;1.50;99.90;;;;;;5043772;28;20033;-72
2021/04/08 03:14:10;;;;;;;9.88;1.42;;;1.40;99.90;;;;;;5045181;28;20030;-74
2021/04/08 03:16:42;;;;;;;5.35;0.70;;;1.50;99.90;;;;;;5045265;28;20025;-74
2021/04/08 03:19:15;;;;;;;1.20;0.85;;;1.50;99.90;;;;;;5043302;28;20084;-72
2021/04/08 03:21:44;;;;;;;2.93;1.50;;;1.60;99.90;;;;;;5044949;28;20040;-72
2021/04/08 03:24:10;;;;;;;3.88;0.93;;;1.60;99.90;;;;;;5045070;28;20033;-74
2021/04/08 03:26:38;;;;;;;1.20;0.75;;;1.60;99.90;;;;;;5045196;28;20048;-75
2021/04/08 03:29:06;;;;;;;9.68;2.03;;;1.60;99.90;;;;;;5044861;28;20029;-72
2021/04/08 03:31:32;;;;;;;4.32;1.30;;;1.60;99.90;;;;;;5044961;28;20085;-73
2021/04/08 03:33:58;;;;;;;0.90;0.55;;;1.50;99.90;;;;;;5044776;28;20038;-72
2021/04/08 03:36:25;;;;;;;3.22;1.55;;;1.50;99.90;;;;;;5044735;28;20028;-74
2021/04/08 03:38:51;;;;;;;4.38;0.50;;;1.50;99.90;;;;;;5043700;28;20049;-73
2021/04/08 03:41:18;;;;;;;5.55;1.08;;;1.60;99.90;;;;;;5044545;28;20022;-75
2021/04/08 03:43:44;;;;;;;0.82;0.50;;;1.50;99.90;;;;;;5044473;28;20057;-74
2021/04/08 03:46:13;;;;;;;14.73;0.98;;;1.40;99.90;;;;;;5043464;28;20094;-73
2021/04/08 03:48:41;;;;;;;7.68;1.20;;;1.40;99.90;;;;;;5044609;28;20030;-74
2021/04/08 03:51:08;;;;;;;1.58;1.05;;;1.40;99.90;;;;;;5044852;28;20065;-74
2021/04/08 03:53:34;;;;;;;5.82;0.70;;;1.30;99.90;;;;;;5043385;28;20025;-74
2021/04/08 03:56:02;;;;;;;4.05;0.93;;;1.30;99.90;;;;;;5044688;28;20471;-73
2021/04/08 03:58:28;;;;;;;9.07;0.90;;;1.20;99.90;;;;;;5044333;28;20077;-73
2021/04/08 04:00:58;;;;;;;6.65;0.57;;;1.20;99.90;;;;;;5043103;28;20029;-72
2021/04/08 04:03:23;;;;;;;5.30;0.73;;;1.20;99.90;;;;;;5044535;28;20021;-70
2021/04/08 04:05:50;;;;;;;4.50;1.05;;;1.20;99.90;;;;;;5044280;28;20486;-72
2021/04/08 04:08:16;;;;;;;7.55;1.50;;;1.20;99.90;;;;;;5044277;28;20036;-72
2021/04/08 04:10:42;;;;;;;3.65;1.65;;;1.10;99.90;;;;;;5044417;28;20383;-73
2021/04/08 04:13:12;;;;;;;7.35;1.05;;;1.10;99.90;;;;;;5042706;28;20116;-72
2021/04/08 04:15:39;;;;;;;6.05;1.35;;;1.10;99.90;;;;;;5043956;28;20028;-74
2021/04/08 04:18:07;;;;;;;5.35;0.98;;;1.20;99.90;;;;;;5042795;28;20092;-74
2021/04/08 04:20:36;;;;;;;10.15;1.17;;;1.20;99.90;;;;;;5042042;28;20124;-74
2021/04/08 04:23:03;;;;;;;1.63;1.30;;;1.20;99.90;;;;;;5044347;28;20021;-73
2021/04/08 04:25:29;;;;;;;1.55;0.73;;;1.20;99.90;;;;;;5044169;28;20032;-72
2021/04/08 04:27:54;;;;;;;1.25;0.90;;;1.30;99.90;;;;;;5044201;28;20029;-75
2021/04/08 04:30:20;;;;;;;4.05;1.00;;;1.30;99.90;;;;;;5044098;28;20084;-71
2021/04/08 04:32:46;;;;;;;5.00;1.63;;;1.30;99.90;;;;;;5044108;28;20029;-72
2021/04/08 04:35:12;;;;;;;3.60;1.08;;;1.40;99.90;;;;;;5043959;28;20057;-73
2021/04/08 04:37:38;;;;;;;7.90;1.60;;;1.40;99.90;;;;;;5044050;28;20466;-74
2021/04/08 04:40:05;;;;;;;11.27;1.20;;;1.40;99.90;;;;;;5043061;28;20095;-73
2021/04/08 04:42:31;;;;;;;11.30;0.80;;;1.40;99.90;;;;;;5044313;28;20490;-73
2021/04/08 04:44:57;;;;;;;2.72;0.98;;;1.40;99.90;;;;;;5044008;28;20056;-73
2021/04/08 04:47:23;;;;;;;3.85;0.75;;;1.40;99.90;;;;;;5043996;28;20104;-73
2021/04/08 04:49:49;;;;;;;5.90;0.75;;;1.40;99.90;;;;;;5045081;28;20028;-72
2021/04/08 04:52:16;;;;;;;3.05;0.82;;;1.40;99.90;;;;;;5047836;28;20022;-72
2021/04/08 04:54:42;;;;;;;8.23;1.27;;;1.30;99.90;;;;;;5047475;28;20056;-73
2021/04/08 04:57:12;;;;;;;12.95;0.90;;;1.30;99.90;;;;;;5047433;28;20028;-72
2021/04/08 04:59:38;;;;;;;5.28;0.85;;;1.30;99.90;;;;;;5047551;28;20108;-74
2021/04/08 05:02:04;;;;;;;3.92;1.10;;;1.30;99.90;;;;;;5046322;28;20025;-73
2021/04/08 05:04:29;;;;;;;5.53;1.05;;;1.30;99.90;;;;;;5047131;28;20040;-72
2021/04/08 05:06:55;;;;;;;1.08;0.88;;;1.30;99.90;;;;;;5047443;28;20449;-72
2021/04/08 05:09:21;;;;;;;6.95;1.13;;;1.20;99.90;;;;;;5047417;28;20030;-73
2021/04/08 05:11:47;;;;;;;0.82;0.70;;;1.20;99.90;;;;;;5047264;28;20034;-72
2021/04/08 05:14:13;;;;;;;4.30;1.33;;;1.30;99.90;;;;;;5046816;28;20089;-73
2021/04/08 05:16:39;;;;;;;4.13;1.35;;;1.20;99.90;;;;;;5046977;28;20047;-74
2021/04/08 05:19:05;;;;;;;3.47;1.60;;;1.30;99.90;;;;;;5046679;28;20080;-77
2021/04/08 05:21:30;;;;;;;8.65;1.10;;;1.30;99.90;;;;;;5040988;28;20117;-74
2021/04/08 05:23:56;;;;;;;7.85;1.10;;;1.30;99.90;;;;;;5041949;28;20600;-74
2021/04/08 05:26:22;;;;;;;1.88;0.75;;;1.30;99.90;;;;;;5046481;28;20045;-74
2021/04/08 05:28:48;;;;;;;7.30;1.58;;;1.30;99.90;;;;;;5039868;28;20030;-74
2021/04/08 05:31:13;;;;;;;0.85;0.70;;;1.30;99.90;;;;;;5036037;28;20387;-75
2021/04/08 05:33:40;;;;;;;3.15;0.98;;;1.40;99.90;;;;;;5036779;28;20017;-75
2021/04/08 05:36:05;;;;;;;2.80;0.98;;;1.40;99.90;;;;;;5035002;28;20032;-75
2021/04/08 05:38:31;;;;;;;2.88;1.17;;;1.40;99.90;;;;;;5038841;28;20021;-75
2021/04/08 05:40:57;;;;;;;1.10;0.90;;;1.50;99.90;;;;;;5034634;28;20057;-75
2021/04/08 05:43:22;;;;;;;1.88;0.70;;;1.50;99.90;;;;;;5038397;28;20026;-76
2021/04/08 05:45:49;;;;;;;9.98;1.13;;;1.60;99.90;;;;;;5035445;28;20029;-75
2021/04/08 05:48:15;;;;;;;2.08;1.23;;;1.60;99.90;;;;;;5028168;28;20030;-75
2021/04/08 05:50:41;;;;;;;2.63;1.52;;;1.60;99.90;;;;;;5025889;28;20856;-76
2021/04/08 05:53:06;;;;;;;10.93;1.77;;;1.60;99.90;;;;;;5026046;28;20097;-77
2021/04/08 05:55:32;;;;;;;11.68;1.23;;;1.70;99.90;;;;;;5026709;28;20026;-76
2021/04/08 05:57:59;;;;;;;6.85;1.05;;;1.70;99.90;;;;;;5038649;28;20037;-75
2021/04/08 06:00:24;;;;;;;9.32;1.65;;;1.70;99.90;;;;;;5045146;28;20122;-75
2021/04/08 06:02:50;;;;;;;5.68;1.20;;;1.70;99.90;;;;;;5044305;28;20362;-75
2021/04/08 06:05:16;;;;;;;4.78;1.05;;;1.70;99.90;;;;;;5046236;28;20034;-75
2021/04/08 06:07:42;;;;;;;1.73;0.82;;;1.80;99.90;;;;;;5045250;28;20056;-75
2021/04/08 06:10:09;;;;;;;4.72;0.80;;;1.80;99.90;;;;;;5042896;28;20029;-76
2021/04/08 06:12:39;;;;;;;2.58;1.10;;;1.80;99.90;;;;;;5045728;28;20033;-75
2021/04/08 06:15:06;;;;;;;5.78;0.80;;;1.80;99.90;;;;;;5046513;28;20681;-75
2021/04/08 06:17:31;;;;;;;4.75;1.42;;;1.90;99.90;;;;;;5045923;28;20037;-75
2021/04/08 06:19:57;;;;;;;3.22;1.02;;;1.90;99.90;;;;;;5045042;28;20065;-75
2021/04/08 06:22:23;;;;;;;7.03;1.15;;;2.00;99.90;;;;;;5046061;28;20034;-75
2021/04/08 06:24:48;;;;;;;5.53;1.38;;;2.00;99.90;;;;;;5045685;28;20022;-74
2021/04/08 06:27:14;;;;;;;9.75;1.58;;;2.10;99.90;;;;;;5045351;28;20025;-74
2021/04/08 06:29:41;;;;;;;2.40;1.05;;;2.20;99.90;;;;;;5038296;28;20053;-75
2021/04/08 06:32:07;;;;;;;1.13;0.70;;;2.20;99.90;;;;;;5024257;28;20094;-76
2021/04/08 06:34:33;;;;;;;7.22;1.40;;;2.30;99.90;;;;;;5024346;28;20140;-74
2021/04/08 06:37:02;;;;;;;1.35;0.70;;;2.30;99.90;;;;;;5023005;28;20816;-74
2021/04/08 06:39:29;;;;;;;5.68;1.77;;;2.40;99.90;;;;;;5037023;28;20052;-75
2021/04/08 06:41:56;;;;;;;8.20;1.13;;;2.40;99.90;;;;;;5044269;28;20071;-74
2021/04/08 06:44:27;;;;;;;5.32;0.70;;;2.50;99.90;;;;;;5043410;28;20504;-75
2021/04/08 06:47:02;;;;;;;7.13;0.95;;;2.60;99.90;;;;;;5044664;28;20474;-73
2021/04/08 06:49:31;;;;;;;11.43;1.67;;;2.70;99.90;;;;;;5044615;28;20025;-74
2021/04/08 06:51:58;;;;;;;4.30;1.38;;;2.80;99.90;;;;;;5043131;28;20084;-74
2021/04/08 06:54:26;;;;;;;4.22;0.95;;;2.90;99.90;;;;;;5043116;28;20022;-73
2021/04/08 06:56:52;;;;;;;8.95;1.63;;;3.00;99.90;;;;;;5043064;28;20031;-74
2021/04/08 06:59:18;;;;;;;3.38;0.90;;;3.00;99.90;;;;;;5044457;28;20052;-75
2021/04/08 07:01:45;;;;;;;5.93;1.25;;;3.00;99.90;;;;;;5043101;28;20029;-75
2021/04/08 07:04:18;;;;;;;2.80;0.38;;;3.00;99.90;;;;;;5044733;28;20120;-77
2021/04/08 07:06:44;;;;;;;2.97;0.70;;;3.00;99.90;;;;;;5044545;28;20466;-75
2021/04/08 07:09:12;;;;;;;1.98;0.60;;;3.00;99.90;;;;;;5044294;28;20029;-73
2021/04/08 07:11:40;;;;;;;0.60;0.57;;;3.10;99.90;;;;;;5044204;28;20029;-74
2021/04/08 07:14:10;;;;;;;0.52;0.45;;;3.10;99.90;;;;;;5044153;28;20076;-74
2021/04/08 07:16:37;;;;;;;7.45;1.55;;;3.20;99.90;;;;;;5044278;28;20026;-74
2021/04/08 07:19:04;;;;;;;4.78;1.63;;;3.30;99.90;;;;;;5043759;28;20053;-73
2021/04/08 07:21:32;;;;;;;1.48;0.85;;;3.40;99.90;;;;;;5044035;28;20493;-74
2021/04/08 07:24:18;;;;;;;0.88;0.75;;;3.50;99.90;;;;;;5044020;28;20238;-73
2021/04/08 07:26:56;;;;;;;1.10;1.00;;;3.60;99.90;;;;;;5043169;28;20029;-75
2021/04/08 07:29:23;;;;;;;2.47;0.90;;;3.60;99.90;;;;;;5043527;28;20026;-74
2021/04/08 07:31:49;;;;;;;6.18;1.35;;;3.70;99.90;;;;;;5044003;28;20088;-73
2021/04/08 07:34:37;;;;;;;8.30;0.75;;;3.80;99.90;;;;;;5043858;28;20052;-73
2021/04/08 07:37:07;;;;;;;4.55;1.27;;;3.80;99.90;;;;;;5042623;28;20029;-76
2021/04/08 07:39:39;;;;;;;2.03;0.55;;;4.00;99.90;;;;;;5043899;28;20029;-71
2021/04/08 07:42:12;;;;;;;16.08;1.77;;;4.10;99.90;;;;;;5042796;28;20068;-74
2021/04/08 07:44:55;;;;;;;2.17;0.80;;;4.20;99.90;;;;;;5043767;28;20057;-75
2021/04/08 07:47:33;;;;;;;2.75;1.27;;;4.30;99.90;;;;;;5043647;28;20045;-76
2021/04/08 07:50:04;;;;;;;2.25;1.10;;;4.40;99.90;;;;;;5042165;28;20028;-75
2021/04/08 07:52:44;;;;;;;3.40;0.50;;;4.60;99.90;;;;;;5041379;28;20025;-73
2021/04/08 07:55:22;;;;;;;6.57;1.15;;;4.70;99.90;;;;;;5041173;28;20033;-73
2021/04/08 07:58:03;;;;;;;3.25;0.80;;;4.90;99.90;;;;;;5043292;28;20028;-73
2021/04/08 08:00:44;;;;;;;6.90;1.17;;;5.10;99.90;;;;;;5043382;28;20048;-73
2021/04/08 08:03:26;;;;;;;1.92;0.63;;;5.10;99.90;;;;;;5043397;28;20033;-74
2021/04/08 08:05:58;;;;;;;4.13;0.45;;;5.20;99.90;;;;;;5043684;28;20109;-74
2021/04/08 08:08:27;;;;;;;2.47;0.68;;;5.30;99.90;;;;;;5042849;28;20460;-73
2021/04/08 08:11:08;;;;;;;2.10;0.55;;;5.30;99.90;;;;;;5043609;28;20067;-72
2021/04/08 08:13:46;;;;;;;2.20;0.50;;;5.20;99.90;;;;;;5043853;28;20078;-74
2021/04/08 08:16:18;;;;;;;0.95;0.90;;;5.20;99.90;;;;;;5043606;28;20053;-74
2021/04/08 08:18:45;;;;;;;6.35;1.27;;;5.30;99.90;;;;;;5038579;28;20073;-72
2021/04/08 08:21:16;;;;;;;1.95;0.70;;;5.30;99.90;;;;;;5043087;28;20024;-74
2021/04/08 08:23:45;;;;;;;21.45;1.65;;;5.30;99.90;;;;;;5042280;28;20039;-74
2021/04/08 08:26:30;;;;;;;1.90;1.13;;;5.40;99.90;;;;;;5046961;28;20037;-75
2021/04/08 08:29:11;;;;;;;2.35;0.80;;;5.50;99.90;;;;;;5047106;28;20036;-74
2021/04/08 08:31:47;;;;;;;16.75;1.33;;;5.50;99.90;;;;;;5047277;28;20052;-74
2021/04/08 08:34:31;;;;;;;4.82;1.15;;;5.60;99.90;;;;;;5047584;28;20026;-72
2021/04/08 08:37:02;;;;;;;2.92;0.73;;;5.70;99.90;;;;;;5046784;28;20022;-74
2021/04/08 08:39:31;;;;;;;1.65;1.08;;;5.80;99.90;;;;;;5037893;28;20042;-74
2021/04/08 08:41:59;;;;;;;2.25;0.73;;;5.70;99.90;;;;;;5046621;28;20434;-75
2021/04/08 08:44:26;;;;;;;3.50;1.13;;;5.90;99.90;;;;;;5045502;28;20033;-74
2021/04/08 08:47:08;;;;;;;4.57;0.80;;;6.00;99.90;;;;;;5046867;28;20060;-71
2021/04/08 08:49:51;;;;;;;2.75;0.80;;;6.30;99.90;;;;;;5047650;28;20112;-73
2021/04/08 08:52:20;;;;;;;7.82;1.15;;;6.50;99.90;;;;;;5046622;28;20327;-74
2021/04/08 08:54:48;;;;;;;1.52;0.73;;;6.70;99.90;;;;;;5047571;28;20026;-76
2021/04/08 08:57:16;;;;;;;1.17;0.38;;;6.60;99.90;;;;;;5047597;28;20032;-75
2021/04/08 08:59:43;;;;;;;3.05;0.63;;;6.60;99.90;;;;;;5045782;28;20044;-76
2021/04/08 09:02:09;;;;;;;5.20;1.08;;;6.70;99.90;;;;;;5035121;28;20092;-75
2021/04/08 09:04:35;;;;;;;1.20;0.95;;;6.70;99.90;;;;;;5043129;28;20021;-74
2021/04/08 09:07:05;;;;;;;1.48;0.60;;;6.80;99.90;;;;;;5047397;28;20025;-75
2021/04/08 09:09:32;;;;;;;3.30;0.38;;;6.90;99.90;;;;;;5046226;28;20029;-72
2021/04/08 09:12:03;;;;;;;0.20;0.20;;;7.10;99.90;;;;;;5047125;28;20029;-74
2021/04/08 09:14:30;;;;;;;5.00;0.52;;;7.20;99.90;;;;;;5047089;28;20052;-73
2021/04/08 09:16:56;;;;;;;1.38;0.57;;;7.20;99.90;;;;;;5045943;28;20039;-74
2021/04/08 09:19:33;;;;;;;1.10;0.63;;;7.30;99.90;;;;;;5044413;28;20045;-76
2021/04/08 09:22:04;;;;;;;2.40;0.68;;;7.40;99.90;;;;;;5040381;28;20037;-73
2021/04/08 09:24:34;;;;;;;4.65;1.20;;;7.30;99.90;;;;;;5043709;28;20037;-73
2021/04/08 09:27:00;;;;;;;2.83;0.52;;;7.30;99.90;;;;;;5045220;28;20104;-74
2021/04/08 09:29:35;;;;;;;1.85;0.63;;;7.40;99.90;;;;;;5044229;28;20521;-72
2021/04/08 09:32:33;;;;;;;2.85;0.90;;;7.30;99.90;;;;;;5044981;28;20025;-76
2021/04/08 09:35:05;;;;;;;2.58;0.70;;;7.30;99.90;;;;;;5044514;28;20041;-74
2021/04/08 09:37:46;;;;;;;0.68;0.43;;;7.50;99.90;;;;;;5045111;28;20029;-73
2021/04/08 09:40:43;;;;;;;3.10;0.47;;;7.60;99.90;;;;;;5044203;28;20025;-75
2021/04/08 09:43:16;;;;;;;0.40;0.22;;;7.60;99.90;;;;;;5045692;28;20116;-73
2021/04/08 09:45:49;;;;;;;3.45;0.82;;;7.30;99.90;;;;;;5044881;28;20029;-73
2021/04/08 09:48:17;;;;;;;0.52;0.40;;;7.10;99.90;;;;;;5046018;28;20026;-74
2021/04/08 09:50:50;;;;;;;5.65;0.63;;;6.80;99.90;;;;;;5045194;28;20022;-73
2021/04/08 09:53:18;;;;;;;1.02;0.52;;;6.70;99.90;;;;;;5045687;28;20049;-73
2021/04/08 09:56:02;;;;;;;2.67;1.00;;;6.60;99.90;;;;;;5045143;28;20048;-73
2021/04/08 09:58:31;;;;;;;3.65;1.20;;;6.40;99.90;;;;;;5045766;28;20086;-72
2021/04/08 10:00:59;;;;;;;2.38;0.85;;;6.30;99.90;;;;;;5046298;28;20048;-72
2021/04/08 10:03:29;;;;;;;3.88;0.65;;;6.40;99.90;;;;;;5046371;28;20021;-70
2021/04/08 10:05:55;;;;;;;0.43;0.40;;;6.60;99.90;;;;;;5046511;28;20544;-74
2021/04/08 10:08:22;;;;;;;2.08;1.08;;;6.60;99.90;;;;;;5046350;28;20032;-74
2021/04/08 10:10:48;;;;;;;2.45;0.82;;;6.70;99.90;;;;;;5045159;28;20025;-73
2021/04/08 10:13:25;;;;;;;3.63;0.88;;;6.80;99.90;;;;;;5045130;28;20039;-74
2021/04/08 10:15:55;;;;;;;0.60;0.50;;;7.10;99.90;;;;;;5044271;28;20029;-74
2021/04/08 10:18:26;;;;;;;1.33;0.57;;;7.20;99.90;;;;;;5044860;28;20124;-73
2021/04/08 10:20:54;;;;;;;4.43;1.13;;;7.20;99.90;;;;;;5045827;28;20048;-72
2021/04/08 10:23:37;;;;;;;3.67;1.08;;;7.30;99.90;;;;;;5044579;28;20112;-73
2021/04/08 10:26:07;;;;;;;5.25;0.65;;;7.40;99.90;;;;;;5045433;28;20053;-73
2021/04/08 10:28:41;;;;;;;7.10;0.80;;;7.40;99.90;;;;;;5044238;28;20140;-74
2021/04/08 10:31:26;;;;;;;8.90;1.38;;;7.40;99.90;;;;;;5043870;28;20056;-74
2021/04/08 10:33:55;;;;;;;3.80;0.57;;;7.30;99.90;;;;;;5045636;28;20029;-72
2021/04/08 10:36:32;;;;;;;1.20;0.17;;;7.30;99.90;;;;;;5045732;28;20029;-75
2021/04/08 10:39:10;;;;;;;2.97;1.00;;;7.30;99.90;;;;;;5045625;28;20425;-75
2021/04/08 10:41:37;;;;;;;1.40;0.43;;;7.30;99.90;;;;;;5045244;28;20018;-75
2021/04/08 10:44:39;;;;;;;19.33;1.27;;;7.40;99.90;;;;;;5045629;28;20033;-73
2021/04/08 10:47:16;;;;;;;4.60;0.88;;;7.40;99.90;;;;;;5043036;28;20037;-74
2021/04/08 10:49:47;;;;;;;4.70;1.00;;;7.30;99.90;;;;;;5040793;28;20727;-74
2021/04/08 10:52:19;;;;;;;3.38;0.77;;;7.10;99.90;;;;;;5045192;28;20417;-75
2021/04/08 10:54:49;;;;;;;4.47;0.63;;;7.00;99.90;;;;;;5043818;28;20390;-74
2021/04/08 10:57:16;;;;;;;4.03;1.02;;;7.00;99.90;;;;;;5043926;28;20043;-73
2021/04/08 10:59:43;;;;;;;0.93;0.55;;;7.10;99.90;;;;;;5045251;28;20104;-73
2021/04/08 11:02:19;;;;;;;6.65;1.10;;;7.10;99.90;;;;;;5043837;28;20120;-71
2021/04/08 11:04:45;;;;;;;1.70;0.80;;;7.10;99.90;;;;;;5043755;28;20036;-75
2021/04/08 11:07:11;;;;;;;9.52;1.08;;;7.20;99.90;;;;;;5043997;28;20033;-73
2021/04/08 11:09:38;;;;;;;1.50;0.70;;;7.20;99.90;;;;;;5045197;28;20032;-73
2021/04/08 11:12:19;;;;;;;1.15;0.60;;;7.30;99.90;;;;;;5045256;28;20079;-73
2021/04/08 11:14:46;;;;;;;2.67;0.93;;;7.50;99.90;;;;;;5044988;28;20025;-71
2021/04/08 11:17:16;;;;;;;1.27;0.55;;;7.60;99.90;;;;;;5044951;28;20101;-74
2021/04/08 11:19:44;;;;;;;0.73;0.52;;;7.70;99.90;;;;;;5042601;28;20049;-74
2021/04/08 11:22:16;;;;;;;2.58;0.50;;;7.70;99.90;;;;;;5040833;28;20025;-73
2021/04/08 11:24:44;;;;;;;4.07;0.98;;;7.70;99.90;;;;;;5043560;28;20371;-74
2021/04/08 11:27:11;;;;;;;0.75;0.50;;;7.70;99.90;;;;;;5044990;28;20028;-73
2021/04/08 11:29:39;;;;;;;0.63;0.30;;;7.80;99.90;;;;;;5044698;28;20025;-73
2021/04/08 11:32:08;;;;;;;5.40;1.02;;;7.80;99.90;;;;;;5045122;28;20033;-73
2021/04/08 11:34:49;;;;;;;0.70;0.50;;;7.50;99.90;;;;;;5044887;28;20036;-71
2021/04/08 11:37:32;;;;;;;3.97;0.65;;;7.40;99.90;;;;;;5044686;28;20421;-73
2021/04/08 11:39:58;;;;;;;3.80;0.73;;;7.40;99.90;;;;;;5044686;28;20074;-71
2021/04/08 11:42:24;;;;;;;3.50;0.88;;;7.30;99.90;;;;;;5044456;28;20025;-75
2021/04/08 11:44:51;;;;;;;3.45;0.77;;;7.30;99.90;;;;;;5044323;28;20030;-73
2021/04/08 11:47:20;;;;;;;1.48;0.57;;;7.40;99.90;;;;;;5044475;28;20025;-74
2021/04/08 11:49:49;;;;;;;5.65;0.95;;;7.50;99.90;;;;;;5040542;28;20485;-74
2021/04/08 11:52:17;;;;;;;1.05;0.60;;;7.50;99.90;;;;;;5039692;28;20029;-74
2021/04/08 11:55:01;;;;;;;7.22;1.10;;;7.60;99.90;;;;;;5043443;28;20028;-76
2021/04/08 11:57:27;;;;;;;5.10;0.70;;;7.80;99.90;;;;;;5044203;28;20029;-74
2021/04/08 12:00:04;;;;;;;1.00;0.45;;;7.90;99.90;;;;;;5043538;28;20402;-73
2021/04/08 12:02:37;;;;;;;3.13;0.63;;;8.10;99.90;;;;;;5044326;28;20033;-74
2021/04/08 12:05:11;;;;;;;1.65;0.95;;;8.10;99.90;;;;;;5043953;28;20081;-73
2021/04/08 12:07:46;;;;;;;3.53;0.80;;;8.20;99.90;;;;;;5044033;28;20037;-73
2021/04/08 12:10:24;;;;;;;11.25;1.20;;;8.40;99.90;;;;;;5047126;28;20094;-72
2021/04/08 12:12:59;;;;;;;1.13;0.38;;;8.50;99.90;;;;;;5042923;28;20409;-73
2021/04/08 12:15:35;;;;;;;1.17;0.63;;;8.60;99.90;;;;;;5044394;28;20126;-72
2021/04/08 12:18:01;;;;;;;1.77;0.38;;;8.60;99.90;;;;;;5043762;28;20067;-74
2021/04/08 12:20:27;;;;;;;1.30;0.45;;;8.50;99.90;;;;;;5041976;28;20109;-72
2021/04/08 12:22:54;;;;;;;6.50;0.65;;;8.40;99.90;;;;;;5042900;28;20040;-73
2021/04/08 12:25:21;;;;;;;3.03;0.55;;;8.20;99.90;;;;;;5042003;28;20018;-71
2021/04/08 12:27:48;;;;;;;2.20;0.98;;;8.00;99.90;;;;;;5043077;28;20025;-71
2021/04/08 12:30:15;;;;;;;5.32;0.57;;;7.70;99.90;;;;;;5044109;28;20084;-73
2021/04/08 12:32:43;;;;;;;5.78;0.80;;;7.50;99.90;;;;;;5044105;28;20036;-74
2021/04/08 12:35:17;;;;;;;1.50;0.77;;;7.40;99.90;;;;;;5043747;28;20029;-72
2021/04/08 12:37:43;;;;;;;;;;;7.30;99.90;;;;;;5044355;28;20033;-76
2021/04/08 12:40:10;;;;;;;1.20;0.65;;;7.30;99.90;;;;;;5043767;28;19963;-73
2021/04/08 12:42:36;;;;;;;2.03;0.80;;;7.20;99.90;;;;;;5044241;28;20493;-73
2021/04/08 12:45:02;;;;;;;2.53;0.50;;;7.20;99.90;;;;;;5043503;28;20116;-71
2021/04/08 12:47:28;;;;;;;2.58;0.75;;;7.30;99.90;;;;;;5043577;28;20033;-71
2021/04/08 12:49:54;;;;;;;2.30;0.77;;;7.40;99.90;;;;;;5040458;28;20041;-71
2021/04/08 12:52:21;;;;;;;3.10;1.08;;;7.50;99.90;;;;;;5043399;28;20575;-71
2021/04/08 12:54:46;;;;;;;7.55;0.73;;;7.50;99.90;;;;;;5041272;28;20040;-70
2021/04/08 12:57:12;;;;;;;1.83;0.60;;;7.70;99.90;;;;;;5043025;28;20025;-74
2021/04/08 12:59:39;;;;;;;4.00;0.70;;;7.80;99.90;;;;;;5041869;28;20050;-74
2021/04/08 13:02:05;;;;;;;4.28;1.00;;;7.80;99.90;;;;;;5043725;28;20022;-72
2021/04/08 13:04:30;;;;;;;2.22;0.93;;;7.80;99.90;;;;;;5044734;28;20060;-72
2021/04/08 13:06:56;;;;;;;3.58;1.15;;;7.80;99.90;;;;;;5031156;28;20040;-71
2021/04/08 13:09:21;;;;;;;0.85;0.70;;;7.70;99.90;;;;;;5048778;28;20029;-73